sensor_id;sensor_type;location;lat;lon;timestamp;pressure;altitude;pressure_sealevel;temperature;humidity
74542;BME280;63015;45.378;20.360;2022-11-25T00:01:43;100791.69;;;4.78;80.09
74542;BME280;63015;45.378;20.360;2022-11-25T00:03:45;100796.69;;;4.74;80.46
74542;BME280;63015;45.378;20.360;2022-11-25T00:05:46;100789.84;;;4.74;80.24
74542;BME280;63015;45.378;20.360;2022-11-25T00:07:46;100789.59;;;4.65;80.40
74542;BME280;63015;45.378;20.360;2022-11-25T00:09:47;100793.78;;;4.61;80.42
74542;BME280;63015;45.378;20.360;2022-11-25T00:11:47;100792.22;;;4.67;80.65
74542;BME280;63015;45.378;20.360;2022-11-25T00:13:48;100794.88;;;4.70;80.09
74542;BME280;63015;45.378;20.360;2022-11-25T00:15:49;100792.03;;;4.60;80.30
74542;BME280;63015;45.378;20.360;2022-11-25T00:17:49;100793.63;;;4.57;80.62
74542;BME280;63015;45.378;20.360;2022-11-25T00:19:50;100790.75;;;4.46;80.64
74542;BME280;63015;45.378;20.360;2022-11-25T00:21:51;100797.44;;;4.39;81.03
74542;BME280;63015;45.378;20.360;2022-11-25T00:23:53;100790.75;;;4.46;80.88
74542;BME280;63015;45.378;20.360;2022-11-25T00:25:54;100790.41;;;4.35;80.75
74542;BME280;63015;45.378;20.360;2022-11-25T00:27:54;100798.22;;;4.37;80.90
74542;BME280;63015;45.378;20.360;2022-11-25T00:29:57;100790.28;;;4.31;80.95
74542;BME280;63015;45.378;20.360;2022-11-25T00:31:58;100793.72;;;4.31;80.75
74542;BME280;63015;45.378;20.360;2022-11-25T00:33:59;100799.53;;;4.24;80.94
74542;BME280;63015;45.378;20.360;2022-11-25T00:36:01;100800.94;;;4.14;81.15
74542;BME280;63015;45.378;20.360;2022-11-25T00:38:01;100804.28;;;4.10;81.44
74542;BME280;63015;45.378;20.360;2022-11-25T00:40:06;100800.75;;;4.08;81.48
74542;BME280;63015;45.378;20.360;2022-11-25T00:42:07;100802.91;;;4.21;80.88
74542;BME280;63015;45.378;20.360;2022-11-25T00:44:26;100802.44;;;4.06;81.27
74542;BME280;63015;45.378;20.360;2022-11-25T00:46:36;100803.91;;;3.99;81.50
74542;BME280;63015;45.378;20.360;2022-11-25T00:48:37;100803.03;;;3.99;81.10
74542;BME280;63015;45.378;20.360;2022-11-25T00:50:37;100804.09;;;4.05;80.72
74542;BME280;63015;45.378;20.360;2022-11-25T00:52:38;100814.19;;;3.98;81.22
74542;BME280;63015;45.378;20.360;2022-11-25T00:54:38;100808.97;;;3.96;81.12
74542;BME280;63015;45.378;20.360;2022-11-25T00:56:39;100820.06;;;3.93;81.18
74542;BME280;63015;45.378;20.360;2022-11-25T00:58:41;100816.63;;;3.93;81.43
74542;BME280;63015;45.378;20.360;2022-11-25T01:00:42;100819.22;;;3.93;81.27
74542;BME280;63015;45.378;20.360;2022-11-25T01:02:43;100820.00;;;3.90;81.11
74542;BME280;63015;45.378;20.360;2022-11-25T01:04:46;100818.03;;;3.83;81.42
74542;BME280;63015;45.378;20.360;2022-11-25T01:06:49;100823.38;;;3.89;80.96
74542;BME280;63015;45.378;20.360;2022-11-25T01:08:49;100822.41;;;3.86;81.40
74542;BME280;63015;45.378;20.360;2022-11-25T01:11:06;100817.41;;;3.90;81.06
74542;BME280;63015;45.378;20.360;2022-11-25T01:13:07;100825.16;;;3.90;81.01
74542;BME280;63015;45.378;20.360;2022-11-25T01:15:09;100831.06;;;3.88;80.92
74542;BME280;63015;45.378;20.360;2022-11-25T01:17:10;100840.50;;;3.87;80.77
74542;BME280;63015;45.378;20.360;2022-11-25T01:19:11;100845.31;;;3.76;81.20
74542;BME280;63015;45.378;20.360;2022-11-25T01:21:15;100841.94;;;3.79;80.85
74542;BME280;63015;45.378;20.360;2022-11-25T01:23:19;100837.63;;;3.78;80.78
74542;BME280;63015;45.378;20.360;2022-11-25T01:25:19;100842.50;;;3.70;81.11
74542;BME280;63015;45.378;20.360;2022-11-25T01:27:20;100841.22;;;3.83;80.57
74542;BME280;63015;45.378;20.360;2022-11-25T01:29:22;100851.50;;;3.82;80.53
74542;BME280;63015;45.378;20.360;2022-11-25T01:31:25;100850.34;;;3.73;80.68
74542;BME280;63015;45.378;20.360;2022-11-25T01:33:27;100856.47;;;3.77;80.52
74542;BME280;63015;45.378;20.360;2022-11-25T01:35:28;100855.34;;;3.69;80.92
74542;BME280;63015;45.378;20.360;2022-11-25T01:37:28;100863.66;;;3.60;80.97
74542;BME280;63015;45.378;20.360;2022-11-25T01:39:29;100857.50;;;3.56;80.89
74542;BME280;63015;45.378;20.360;2022-11-25T01:41:32;100848.13;;;3.58;80.75
74542;BME280;63015;45.378;20.360;2022-11-25T01:43:32;100857.41;;;3.53;80.89
74542;BME280;63015;45.378;20.360;2022-11-25T01:45:36;100856.47;;;3.51;81.00
74542;BME280;63015;45.378;20.360;2022-11-25T01:47:37;100858.13;;;3.49;81.11
74542;BME280;63015;45.378;20.360;2022-11-25T01:51:52;100856.31;;;3.47;81.02
74542;BME280;63015;45.378;20.360;2022-11-25T01:53:56;100863.13;;;3.44;81.15
74542;BME280;63015;45.378;20.360;2022-11-25T01:56:01;100864.09;;;3.48;81.05
74542;BME280;63015;45.378;20.360;2022-11-25T01:58:08;100863.56;;;3.57;80.84
74542;BME280;63015;45.378;20.360;2022-11-25T02:00:13;100857.63;;;3.59;80.61
74542;BME280;63015;45.378;20.360;2022-11-25T02:02:23;100857.66;;;3.61;80.48
74542;BME280;63015;45.378;20.360;2022-11-25T02:04:28;100861.75;;;3.54;80.82
74542;BME280;63015;45.378;20.360;2022-11-25T02:06:35;100867.09;;;3.60;80.36
74542;BME280;63015;45.378;20.360;2022-11-25T02:08:38;100861.13;;;3.61;80.55
74542;BME280;63015;45.378;20.360;2022-11-25T02:10:41;100872.50;;;3.68;80.24
74542;BME280;63015;45.378;20.360;2022-11-25T02:12:44;100873.44;;;3.70;79.90
74542;BME280;63015;45.378;20.360;2022-11-25T02:14:47;100862.28;;;3.70;79.78
74542;BME280;63015;45.378;20.360;2022-11-25T02:16:49;100870.16;;;3.74;79.69
74542;BME280;63015;45.378;20.360;2022-11-25T02:18:49;100866.75;;;3.75;79.58
74542;BME280;63015;45.378;20.360;2022-11-25T02:20:51;100873.53;;;3.73;79.68
74542;BME280;63015;45.378;20.360;2022-11-25T02:25:32;100869.94;;;3.68;79.68
74542;BME280;63015;45.378;20.360;2022-11-25T02:27:33;100875.22;;;3.71;79.42
74542;BME280;63015;45.378;20.360;2022-11-25T02:29:34;100875.97;;;3.69;79.61
74542;BME280;63015;45.378;20.360;2022-11-25T02:31:38;100878.59;;;3.70;79.74
74542;BME280;63015;45.378;20.360;2022-11-25T02:33:38;100879.34;;;3.66;79.44
74542;BME280;63015;45.378;20.360;2022-11-25T02:38:14;100886.75;;;3.57;79.77
74542;BME280;63015;45.378;20.360;2022-11-25T02:40:16;100891.06;;;3.58;79.52
74542;BME280;63015;45.378;20.360;2022-11-25T02:42:18;100890.00;;;3.53;79.69
74542;BME280;63015;45.378;20.360;2022-11-25T02:44:20;100897.66;;;3.50;79.71
74542;BME280;63015;45.378;20.360;2022-11-25T02:46:24;100889.81;;;3.47;79.59
74542;BME280;63015;45.378;20.360;2022-11-25T02:48:26;100885.53;;;3.47;79.58
74542;BME280;63015;45.378;20.360;2022-11-25T02:50:27;100883.78;;;3.46;79.54
74542;BME280;63015;45.378;20.360;2022-11-25T02:52:27;100890.59;;;3.44;79.33
74542;BME280;63015;45.378;20.360;2022-11-25T02:54:28;100889.69;;;3.43;79.47
74542;BME280;63015;45.378;20.360;2022-11-25T02:56:31;100886.25;;;3.43;79.43
74542;BME280;63015;45.378;20.360;2022-11-25T02:58:32;100891.34;;;3.41;79.27
74542;BME280;63015;45.378;20.360;2022-11-25T03:00:32;100891.28;;;3.40;79.18
74542;BME280;63015;45.378;20.360;2022-11-25T03:02:33;100890.38;;;3.38;79.09
74542;BME280;63015;45.378;20.360;2022-11-25T03:04:35;100885.97;;;3.35;79.08
74542;BME280;63015;45.378;20.360;2022-11-25T03:06:36;100890.22;;;3.35;78.90
74542;BME280;63015;45.378;20.360;2022-11-25T03:08:37;100892.75;;;3.33;79.34
74542;BME280;63015;45.378;20.360;2022-11-25T03:10:41;100896.25;;;3.34;79.17
74542;BME280;63015;45.378;20.360;2022-11-25T03:12:42;100898.88;;;3.35;79.23
74542;BME280;63015;45.378;20.360;2022-11-25T03:14:43;100902.06;;;3.29;79.26
74542;BME280;63015;45.378;20.360;2022-11-25T03:16:45;100906.53;;;3.34;79.21
74542;BME280;63015;45.378;20.360;2022-11-25T03:18:46;100909.13;;;3.34;79.21
74542;BME280;63015;45.378;20.360;2022-11-25T03:20:55;100911.59;;;3.32;79.15
74542;BME280;63015;45.378;20.360;2022-11-25T03:22:58;100914.09;;;3.29;79.23
74542;BME280;63015;45.378;20.360;2022-11-25T03:24:58;100916.72;;;3.31;79.23
74542;BME280;63015;45.378;20.360;2022-11-25T03:26:59;100916.63;;;3.27;79.09
74542;BME280;63015;45.378;20.360;2022-11-25T03:29:00;100915.66;;;3.25;79.00
74542;BME280;63015;45.378;20.360;2022-11-25T03:31:01;100916.63;;;3.27;79.16
74542;BME280;63015;45.378;20.360;2022-11-25T03:33:03;100926.03;;;3.27;79.06
74542;BME280;63015;45.378;20.360;2022-11-25T03:35:04;100924.22;;;3.24;79.20
74542;BME280;63015;45.378;20.360;2022-11-25T03:37:07;100927.72;;;3.26;79.08
74542;BME280;63015;45.378;20.360;2022-11-25T03:39:07;100927.72;;;3.26;78.91
74542;BME280;63015;45.378;20.360;2022-11-25T03:41:10;100930.31;;;3.26;79.07
74542;BME280;63015;45.378;20.360;2022-11-25T03:43:11;100914.81;;;3.25;79.15
74542;BME280;63015;45.378;20.360;2022-11-25T03:45:14;100920.88;;;3.27;79.07
74542;BME280;63015;45.378;20.360;2022-11-25T03:47:16;100921.00;;;3.30;78.88
74542;BME280;63015;45.378;20.360;2022-11-25T03:49:17;100917.53;;;3.29;79.03
74542;BME280;63015;45.378;20.360;2022-11-25T03:51:17;100917.63;;;3.31;78.99
74542;BME280;63015;45.378;20.360;2022-11-25T03:53:18;100921.81;;;3.29;78.91
74542;BME280;63015;45.378;20.360;2022-11-25T03:55:19;100914.91;;;3.28;78.90
74542;BME280;63015;45.378;20.360;2022-11-25T03:57:20;100927.72;;;3.26;78.71
74542;BME280;63015;45.378;20.360;2022-11-25T03:59:21;100931.19;;;3.27;78.59
74542;BME280;63015;45.378;20.360;2022-11-25T04:01:24;100939.75;;;3.26;78.79
74542;BME280;63015;45.378;20.360;2022-11-25T04:03:24;100936.28;;;3.25;78.86
74542;BME280;63015;45.378;20.360;2022-11-25T04:05:25;100935.22;;;3.20;78.65
74542;BME280;63015;45.378;20.360;2022-11-25T04:07:29;100935.19;;;3.19;78.69
74542;BME280;63015;45.378;20.360;2022-11-25T04:09:31;100942.81;;;3.16;79.03
74542;BME280;63015;45.378;20.360;2022-11-25T04:11:34;100944.47;;;3.15;78.93
74542;BME280;63015;45.378;20.360;2022-11-25T04:13:53;100938.50;;;3.16;79.17
74542;BME280;63015;45.378;20.360;2022-11-25T04:15:54;100941.97;;;3.17;79.26
74542;BME280;63015;45.378;20.360;2022-11-25T04:17:55;100943.72;;;3.18;79.11
74542;BME280;63015;45.378;20.360;2022-11-25T04:19:55;100941.09;;;3.16;79.16
74542;BME280;63015;45.378;20.360;2022-11-25T04:21:57;100949.63;;;3.15;79.16
74542;BME280;63015;45.378;20.360;2022-11-25T04:24:04;100952.25;;;3.17;79.16
74542;BME280;63015;45.378;20.360;2022-11-25T04:26:07;100952.34;;;3.18;79.10
74542;BME280;63015;45.378;20.360;2022-11-25T04:28:12;100952.41;;;3.20;78.96
74542;BME280;63015;45.378;20.360;2022-11-25T04:30:14;100957.59;;;3.21;79.02
74542;BME280;63015;45.378;20.360;2022-11-25T04:32:16;100950.69;;;3.20;79.19
74542;BME280;63015;45.378;20.360;2022-11-25T04:34:18;100964.50;;;3.22;79.14
74542;BME280;63015;45.378;20.360;2022-11-25T04:36:21;100965.97;;;3.16;79.67
74542;BME280;63015;45.378;20.360;2022-11-25T04:38:22;100967.72;;;3.17;79.64
74542;BME280;63015;45.378;20.360;2022-11-25T04:40:23;100964.31;;;3.18;79.69
74542;BME280;63015;45.378;20.360;2022-11-25T04:42:33;100966.91;;;3.18;79.16
74542;BME280;63015;45.378;20.360;2022-11-25T04:44:43;100974.69;;;3.19;79.38
74542;BME280;63015;45.378;20.360;2022-11-25T04:46:44;100981.31;;;3.12;79.94
74542;BME280;63015;45.378;20.360;2022-11-25T04:48:45;100980.47;;;3.13;79.90
74542;BME280;63015;45.378;20.360;2022-11-25T04:50:47;100986.50;;;3.14;79.70
74542;BME280;63015;45.378;20.360;2022-11-25T04:52:48;100987.22;;;3.10;80.06
74542;BME280;63015;45.378;20.360;2022-11-25T04:54:49;100994.13;;;3.11;80.08
74542;BME280;63015;45.378;20.360;2022-11-25T04:56:52;100990.44;;;3.04;80.54
74542;BME280;63015;45.378;20.360;2022-11-25T04:58:53;100993.06;;;3.06;80.53
74542;BME280;63015;45.378;20.360;2022-11-25T05:01:16;100998.09;;;3.03;80.95
74542;BME280;63015;45.378;20.360;2022-11-25T05:03:21;100997.22;;;3.02;81.14
74542;BME280;63015;45.378;20.360;2022-11-25T05:05:22;101003.06;;;2.98;81.57
74542;BME280;63015;45.378;20.360;2022-11-25T05:07:25;101010.91;;;3.01;81.66
74542;BME280;63015;45.378;20.360;2022-11-25T05:09:28;101006.00;;;3.07;81.23
74542;BME280;63015;45.378;20.360;2022-11-25T05:11:40;101013.09;;;3.13;80.57
74542;BME280;63015;45.378;20.360;2022-11-25T05:13:41;101015.53;;;3.10;81.16
74542;BME280;63015;45.378;20.360;2022-11-25T05:15:41;101020.22;;;2.98;82.43
74542;BME280;63015;45.378;20.360;2022-11-25T05:17:43;101020.59;;;3.07;82.37
74542;BME280;63015;45.378;20.360;2022-11-25T05:19:44;101019.16;;;3.15;81.74
74542;BME280;63015;45.378;20.360;2022-11-25T05:21:47;101021.94;;;3.20;81.01
74542;BME280;63015;45.378;20.360;2022-11-25T05:23:48;101017.78;;;3.23;80.66
74542;BME280;63015;45.378;20.360;2022-11-25T05:25:49;101026.91;;;3.15;81.04
74542;BME280;63015;45.378;20.360;2022-11-25T05:27:59;101032.03;;;3.15;81.49
74542;BME280;63015;45.378;20.360;2022-11-25T05:30:00;101041.44;;;3.13;81.33
74542;BME280;63015;45.378;20.360;2022-11-25T05:32:01;101040.84;;;3.20;81.00
74542;BME280;63015;45.378;20.360;2022-11-25T05:34:03;101036.69;;;3.24;80.64
74542;BME280;63015;45.378;20.360;2022-11-25T05:36:04;101051.28;;;3.23;80.54
74542;BME280;63015;45.378;20.360;2022-11-25T05:38:15;101050.31;;;3.21;80.59
74542;BME280;63015;45.378;20.360;2022-11-25T05:40:15;101053.72;;;3.20;80.67
74542;BME280;63015;45.378;20.360;2022-11-25T05:42:24;101059.25;;;3.08;81.11
74542;BME280;63015;45.378;20.360;2022-11-25T05:44:25;101051.34;;;3.04;81.56
74542;BME280;63015;45.378;20.360;2022-11-25T05:46:27;101063.47;;;3.06;81.40
74542;BME280;63015;45.378;20.360;2022-11-25T05:48:29;101062.78;;;3.10;81.21
74542;BME280;63015;45.378;20.360;2022-11-25T05:50:31;101065.41;;;3.12;80.90
74542;BME280;63015;45.378;20.360;2022-11-25T05:52:44;101058.69;;;3.16;80.46
74542;BME280;63015;45.378;20.360;2022-11-25T05:54:45;101068.81;;;3.11;80.75
74542;BME280;63015;45.378;20.360;2022-11-25T05:56:46;101068.81;;;3.11;80.90
74542;BME280;63015;45.378;20.360;2022-11-25T05:59:18;101077.94;;;3.03;81.27
74542;BME280;63015;45.378;20.360;2022-11-25T06:01:32;101070.44;;;3.09;81.03
74542;BME280;63015;45.378;20.360;2022-11-25T06:03:34;101077.25;;;3.07;81.03
74542;BME280;63015;45.378;20.360;2022-11-25T06:05:35;101087.66;;;3.10;80.78
74542;BME280;63015;45.378;20.360;2022-11-25T06:07:36;101091.88;;;3.08;81.01
74542;BME280;63015;45.378;20.360;2022-11-25T06:09:37;101099.59;;;3.08;80.98
74542;BME280;63015;45.378;20.360;2022-11-25T06:11:37;101100.59;;;3.11;80.70
74542;BME280;63015;45.378;20.360;2022-11-25T06:13:39;101107.44;;;3.11;80.92
74542;BME280;63015;45.378;20.360;2022-11-25T06:15:41;101109.19;;;3.12;80.87
74542;BME280;63015;45.378;20.360;2022-11-25T06:17:43;101112.03;;;3.18;80.62
74542;BME280;63015;45.378;20.360;2022-11-25T06:19:50;101108.50;;;3.16;80.67
74542;BME280;63015;45.378;20.360;2022-11-25T06:21:51;101108.75;;;3.22;80.44
74542;BME280;63015;45.378;20.360;2022-11-25T06:23:52;101110.22;;;3.16;80.55
74542;BME280;63015;45.378;20.360;2022-11-25T06:25:54;101117.34;;;3.23;80.53
74542;BME280;63015;45.378;20.360;2022-11-25T06:27:58;101114.00;;;3.25;80.27
74542;BME280;63015;45.378;20.360;2022-11-25T06:29:58;101119.47;;;3.33;80.08
74542;BME280;63015;45.378;20.360;2022-11-25T06:31:59;101121.28;;;3.36;80.10
74542;BME280;63015;45.378;20.360;2022-11-25T06:34:35;101118.91;;;3.40;80.07
74542;BME280;63015;45.378;20.360;2022-11-25T06:36:39;101125.22;;;3.49;79.82
74542;BME280;63015;45.378;20.360;2022-11-25T06:38:40;101121.19;;;3.55;79.79
74542;BME280;63015;45.378;20.360;2022-11-25T06:40:40;101131.75;;;3.61;79.59
74542;BME280;63015;45.378;20.360;2022-11-25T06:42:41;101137.97;;;3.67;79.45
74542;BME280;63015;45.378;20.360;2022-11-25T06:44:42;101144.06;;;3.69;79.37
74542;BME280;63015;45.378;20.360;2022-11-25T06:46:43;101149.56;;;3.78;79.36
74542;BME280;63015;45.378;20.360;2022-11-25T06:48:44;101141.94;;;3.81;79.18
74542;BME280;63015;45.378;20.360;2022-11-25T06:50:54;101145.28;;;3.78;79.15
74542;BME280;63015;45.378;20.360;2022-11-25T06:52:55;101152.84;;;3.74;79.32
74542;BME280;63015;45.378;20.360;2022-11-25T06:54:55;101150.44;;;3.78;79.34
74542;BME280;63015;45.378;20.360;2022-11-25T06:56:56;101148.09;;;3.85;79.21
74542;BME280;63015;45.378;20.360;2022-11-25T06:58:56;101152.19;;;3.79;79.34
74542;BME280;63015;45.378;20.360;2022-11-25T07:01:33;101151.56;;;3.85;79.32
74542;BME280;63015;45.378;20.360;2022-11-25T07:03:27;101148.38;;;3.92;79.39
74542;BME280;63015;45.378;20.360;2022-11-25T07:05:29;101153.78;;;3.99;79.43
74542;BME280;63015;45.378;20.360;2022-11-25T07:07:30;101155.97;;;4.12;79.19
74542;BME280;63015;45.378;20.360;2022-11-25T07:09:30;101157.69;;;4.11;79.17
74542;BME280;63015;45.378;20.360;2022-11-25T07:11:33;101156.41;;;4.23;79.00
74542;BME280;63015;45.378;20.360;2022-11-25T07:13:34;101152.34;;;4.30;79.18
74542;BME280;63015;45.378;20.360;2022-11-25T07:15:35;101156.16;;;4.39;78.88
74542;BME280;63015;45.378;20.360;2022-11-25T07:17:37;101157.34;;;4.49;78.71
74542;BME280;63015;45.378;20.360;2022-11-25T07:19:38;101173.13;;;4.58;78.65
74542;BME280;63015;45.378;20.360;2022-11-25T07:21:39;101166.72;;;4.71;78.44
74542;BME280;63015;45.378;20.360;2022-11-25T07:23:42;101170.44;;;4.80;78.35
74542;BME280;63015;45.378;20.360;2022-11-25T07:25:43;101173.44;;;4.92;78.19
74542;BME280;63015;45.378;20.360;2022-11-25T07:27:43;101174.72;;;5.05;78.21
74542;BME280;63015;45.378;20.360;2022-11-25T07:29:44;101179.25;;;5.10;78.11
74542;BME280;63015;45.378;20.360;2022-11-25T07:31:44;101175.25;;;5.20;77.86
74542;BME280;63015;45.378;20.360;2022-11-25T07:33:45;101172.66;;;5.20;77.99
74542;BME280;63015;45.378;20.360;2022-11-25T07:35:46;101177.47;;;5.35;77.68
74542;BME280;63015;45.378;20.360;2022-11-25T07:37:46;101179.50;;;5.46;77.43
74542;BME280;63015;45.378;20.360;2022-11-25T07:39:47;101190.78;;;5.48;77.29
74542;BME280;63015;45.378;20.360;2022-11-25T07:41:49;101184.03;;;5.51;77.35
74542;BME280;63015;45.378;20.360;2022-11-25T07:43:56;101191.09;;;5.57;76.98
74542;BME280;63015;45.378;20.360;2022-11-25T07:48:21;101194.50;;;5.56;77.16
74542;BME280;63015;45.378;20.360;2022-11-25T07:50:22;101197.81;;;5.52;77.31
74542;BME280;63015;45.378;20.360;2022-11-25T07:52:22;101199.91;;;5.64;77.20
74542;BME280;63015;45.378;20.360;2022-11-25T07:54:23;101203.81;;;5.51;77.40
74542;BME280;63015;45.378;20.360;2022-11-25T07:56:24;101201.59;;;5.62;77.44
74542;BME280;63015;45.378;20.360;2022-11-25T07:58:24;101203.72;;;5.48;77.48
74542;BME280;63015;45.378;20.360;2022-11-25T08:00:25;101205.03;;;5.62;77.64
74542;BME280;63015;45.378;20.360;2022-11-25T08:02:26;101206.81;;;5.63;77.59
74542;BME280;63015;45.378;20.360;2022-11-25T08:04:26;101210.22;;;5.62;77.71
74542;BME280;63015;45.378;20.360;2022-11-25T08:06:28;101221.28;;;5.58;77.79
74542;BME280;63015;45.378;20.360;2022-11-25T08:08:28;101229.19;;;5.63;78.01
74542;BME280;63015;45.378;20.360;2022-11-25T08:10:29;101223.59;;;5.76;77.95
74542;BME280;63015;45.378;20.360;2022-11-25T08:12:31;101223.91;;;5.87;77.80
74542;BME280;63015;45.378;20.360;2022-11-25T08:14:32;101225.44;;;5.80;78.17
74542;BME280;63015;45.378;20.360;2022-11-25T08:16:34;101232.91;;;5.98;78.18
74542;BME280;63015;45.378;20.360;2022-11-25T08:18:34;101227.38;;;6.15;77.60
74542;BME280;63015;45.378;20.360;2022-11-25T08:20:35;101227.84;;;6.30;77.42
74542;BME280;63015;45.378;20.360;2022-11-25T08:22:36;101236.47;;;6.31;77.41
74542;BME280;63015;45.378;20.360;2022-11-25T08:24:36;101226.84;;;6.25;77.13
74542;BME280;63015;45.378;20.360;2022-11-25T08:26:38;101228.81;;;6.34;77.18
74542;BME280;63015;45.378;20.360;2022-11-25T08:28:40;101240.00;;;6.33;77.17
74542;BME280;63015;45.378;20.360;2022-11-25T08:30:41;101238.16;;;6.29;77.17
74542;BME280;63015;45.378;20.360;2022-11-25T08:32:41;101242.63;;;6.34;76.98
74542;BME280;63015;45.378;20.360;2022-11-25T08:34:42;101249.75;;;6.41;76.88
74542;BME280;63015;45.378;20.360;2022-11-25T08:36:44;101245.50;;;6.45;77.00
74542;BME280;63015;45.378;20.360;2022-11-25T08:38:47;101245.13;;;6.62;76.82
74542;BME280;63015;45.378;20.360;2022-11-25T08:40:48;101247.47;;;6.83;76.82
74542;BME280;63015;45.378;20.360;2022-11-25T08:42:49;101237.53;;;6.98;76.07
74542;BME280;63015;45.378;20.360;2022-11-25T08:44:53;101247.53;;;7.18;76.02
74542;BME280;63015;45.378;20.360;2022-11-25T08:46:55;101240.22;;;7.36;75.43
74542;BME280;63015;45.378;20.360;2022-11-25T08:48:55;101241.44;;;7.51;74.84
74542;BME280;63015;45.378;20.360;2022-11-25T08:50:56;101237.72;;;7.39;74.43
74542;BME280;63015;45.378;20.360;2022-11-25T08:52:57;101234.06;;;7.33;74.10
74542;BME280;63015;45.378;20.360;2022-11-25T08:54:59;101241.41;;;7.49;73.75
74542;BME280;63015;45.378;20.360;2022-11-25T08:56:59;101237.81;;;7.44;73.82
74542;BME280;63015;45.378;20.360;2022-11-25T08:59:00;101235.53;;;7.21;73.81
74542;BME280;63015;45.378;20.360;2022-11-25T09:01:01;101232.53;;;7.39;73.67
74542;BME280;63015;45.378;20.360;2022-11-25T09:03:02;101238.81;;;7.49;73.31
74542;BME280;63015;45.378;20.360;2022-11-25T09:05:03;101240.88;;;7.63;72.75
74542;BME280;63015;45.378;20.360;2022-11-25T09:07:04;101224.50;;;7.65;72.17
74542;BME280;63015;45.378;20.360;2022-11-25T09:09:04;101233.72;;;7.90;72.15
74542;BME280;63015;45.378;20.360;2022-11-25T09:11:06;101223.78;;;7.72;71.64
74542;BME280;63015;45.378;20.360;2022-11-25T09:13:07;101235.13;;;7.76;71.16
74542;BME280;63015;45.378;20.360;2022-11-25T09:15:10;101229.81;;;7.71;71.73
74542;BME280;63015;45.378;20.360;2022-11-25T09:17:11;101231.56;;;7.72;71.70
74542;BME280;63015;45.378;20.360;2022-11-25T09:19:12;101231.09;;;7.89;72.02
74542;BME280;63015;45.378;20.360;2022-11-25T09:21:14;101233.25;;;8.07;71.87
74542;BME280;63015;45.378;20.360;2022-11-25T09:23:15;101219.91;;;8.30;71.60
74542;BME280;63015;45.378;20.360;2022-11-25T09:25:16;101220.06;;;8.37;70.24
74542;BME280;63015;45.378;20.360;2022-11-25T09:27:16;101214.84;;;8.37;70.10
74542;BME280;63015;45.378;20.360;2022-11-25T09:29:17;101213.88;;;8.31;70.45
74542;BME280;63015;45.378;20.360;2022-11-25T09:31:18;101217.47;;;8.39;68.54
74542;BME280;63015;45.378;20.360;2022-11-25T09:33:19;101214.13;;;8.45;68.82
74542;BME280;63015;45.378;20.360;2022-11-25T09:35:21;101212.91;;;8.68;68.89
74542;BME280;63015;45.378;20.360;2022-11-25T09:37:22;101209.69;;;8.82;69.23
74542;BME280;63015;45.378;20.360;2022-11-25T09:39:22;101210.94;;;9.04;69.10
74542;BME280;63015;45.378;20.360;2022-11-25T09:47:21;101219.13;;;8.77;67.20
74542;BME280;63015;45.378;20.360;2022-11-25T09:54:06;101209.28;;;9.06;67.18
74542;BME280;63015;45.378;20.360;2022-11-25T09:58:28;101202.56;;;9.19;67.01
74542;BME280;63015;45.378;20.360;2022-11-25T10:00:55;101203.41;;;9.18;65.92
74542;BME280;63015;45.378;20.360;2022-11-25T10:05:44;101195.34;;;9.54;65.75
74542;BME280;63015;45.378;20.360;2022-11-25T10:07:51;101200.44;;;9.48;64.33
74542;BME280;63015;45.378;20.360;2022-11-25T10:09:53;101197.88;;;9.51;64.25
74542;BME280;63015;45.378;20.360;2022-11-25T10:12:21;101203.53;;;9.79;65.29
74542;BME280;63015;45.378;20.360;2022-11-25T10:14:39;101201.00;;;9.85;64.02
74542;BME280;63015;45.378;20.360;2022-11-25T10:16:57;101209.53;;;9.75;61.53
74542;BME280;63015;45.378;20.360;2022-11-25T10:19:11;101206.38;;;9.98;64.23
74542;BME280;63015;45.378;20.360;2022-11-25T10:21:14;101211.88;;;10.18;63.12
74542;BME280;63015;45.378;20.360;2022-11-25T10:23:23;101210.22;;;10.26;63.22
74542;BME280;63015;45.378;20.360;2022-11-25T10:25:35;101219.91;;;10.35;62.96
74542;BME280;63015;45.378;20.360;2022-11-25T10:27:51;101224.31;;;10.38;61.77
74542;BME280;63015;45.378;20.360;2022-11-25T10:30:06;101229.34;;;10.27;61.72
74542;BME280;63015;45.378;20.360;2022-11-25T10:32:23;101222.94;;;10.01;62.57
74542;BME280;63015;45.378;20.360;2022-11-25T10:34:39;101225.56;;;10.04;62.97
74542;BME280;63015;45.378;20.360;2022-11-25T10:36:40;101229.81;;;9.99;64.42
74542;BME280;63015;45.378;20.360;2022-11-25T10:38:58;101231.78;;;10.14;62.88
74542;BME280;63015;45.378;20.360;2022-11-25T10:41:02;101228.84;;;9.91;62.76
74542;BME280;63015;45.378;20.360;2022-11-25T10:43:11;101223.97;;;10.14;63.89
74542;BME280;63015;45.378;20.360;2022-11-25T10:45:12;101232.63;;;10.12;63.71
74542;BME280;63015;45.378;20.360;2022-11-25T10:49:43;101228.88;;;9.93;63.49
74542;BME280;63015;45.378;20.360;2022-11-25T10:51:46;101222.69;;;9.86;62.25
74542;BME280;63015;45.378;20.360;2022-11-25T10:54:07;101228.03;;;9.95;62.48
74542;BME280;63015;45.378;20.360;2022-11-25T10:56:16;101226.47;;;10.08;63.13
74542;BME280;63015;45.378;20.360;2022-11-25T10:58:33;101227.44;;;10.13;63.50
74542;BME280;63015;45.378;20.360;2022-11-25T11:00:36;101224.78;;;10.10;64.14
74542;BME280;63015;45.378;20.360;2022-11-25T11:02:39;101225.66;;;10.12;63.37
74542;BME280;63015;45.378;20.360;2022-11-25T11:07:08;101218.34;;;9.85;64.41
74542;BME280;63015;45.378;20.360;2022-11-25T11:11:29;101220.34;;;10.04;64.40
74542;BME280;63015;45.378;20.360;2022-11-25T11:13:29;101214.50;;;10.21;64.03
74542;BME280;63015;45.378;20.360;2022-11-25T11:15:44;101217.53;;;10.52;63.54
74542;BME280;63015;45.378;20.360;2022-11-25T11:17:46;101217.50;;;10.47;62.23